createdAt,value
2018-03-23T00:00:47.059Z,85.21
2018-03-23T00:03:14.685Z,84.75
2018-03-23T00:08:24.770Z,84.96
2018-03-23T00:10:52.446Z,85.32
2018-03-23T00:13:21.184Z,85.46
2018-03-23T00:15:48.810Z,85.92
2018-03-23T00:18:17.267Z,86.24
2018-03-23T00:20:44.961Z,86.58
2018-03-23T00:23:12.723Z,86.39
2018-03-23T00:25:41.081Z,86.31
2018-03-23T00:28:08.703Z,86.62
2018-03-23T00:30:36.335Z,86.81
2018-03-23T00:33:05.030Z,86.82
2018-03-23T00:35:32.821Z,87.11
2018-03-23T00:38:00.552Z,87.24
2018-03-23T00:40:29.761Z,87.28
2018-03-23T00:42:58.276Z,87.05
2018-03-23T00:45:25.956Z,86.97
2018-03-23T00:47:53.807Z,86.75
2018-03-23T00:50:22.152Z,87.12
2018-03-23T00:52:50.638Z,86.87
2018-03-23T00:55:18.300Z,87.20
2018-03-23T00:57:46.356Z,87.34
2018-03-23T01:00:14.552Z,87.44
2018-03-23T01:02:43.851Z,87.47
2018-03-23T01:05:12.063Z,87.31
2018-03-23T01:07:40.375Z,87.53
2018-03-23T01:10:07.989Z,87.42
2018-03-23T01:12:36.214Z,87.14
2018-03-23T01:15:04.188Z,87.27
2018-03-23T01:17:31.762Z,88.00
2018-03-23T01:20:00.334Z,87.50
2018-03-23T01:22:27.925Z,87.41
2018-03-23T01:24:55.585Z,87.39
2018-03-23T01:27:23.228Z,87.62
2018-03-23T01:29:50.808Z,87.75
2018-03-23T01:32:18.549Z,87.75
2018-03-23T01:34:46.200Z,87.63
2018-03-23T01:37:13.840Z,87.71
2018-03-23T01:39:42.303Z,87.92
2018-03-23T01:42:09.840Z,87.80
2018-03-23T01:44:38.253Z,87.76
2018-03-23T01:47:06.581Z,87.96
2018-03-23T01:49:34.531Z,87.92
2018-03-23T01:52:04.164Z,88.03
2018-03-23T01:54:31.799Z,88.08
2018-03-23T01:56:59.407Z,88.30
2018-03-23T01:59:27.631Z,88.13
2018-03-23T02:01:55.944Z,88.06
2018-03-23T02:04:23.576Z,88.42
2018-03-23T02:06:51.216Z,88.33
2018-03-23T02:09:19.356Z,88.12
2018-03-23T02:11:47.528Z,88.24
2018-03-23T02:14:15.760Z,87.96
2018-03-23T02:16:43.421Z,87.72
2018-03-23T02:19:11.602Z,87.72
2018-03-23T02:21:39.301Z,87.88
2018-03-23T02:24:06.956Z,87.78
2018-03-23T02:26:35.643Z,87.81
2018-03-23T02:29:03.610Z,88.10
2018-03-23T02:31:31.301Z,87.97
2018-03-23T02:33:58.965Z,88.05
2018-03-23T02:36:27.197Z,88.19
2018-03-23T02:38:54.800Z,88.27
2018-03-23T02:41:22.361Z,88.37
2018-03-23T02:43:50.588Z,88.10
2018-03-23T02:46:18.186Z,88.10
2018-03-23T02:48:45.849Z,88.13
2018-03-23T02:51:14.304Z,87.84
2018-03-23T02:53:42.971Z,87.78
2018-03-23T02:56:11.275Z,87.68
2018-03-23T02:58:39.545Z,87.46
2018-03-23T03:01:08.267Z,87.47
2018-03-23T03:03:36.199Z,87.45
2018-03-23T03:06:04.072Z,87.50
2018-03-23T03:08:32.634Z,87.70
2018-03-23T03:11:00.268Z,87.85
2018-03-23T03:13:27.908Z,87.89
2018-03-23T03:15:55.547Z,88.04
2018-03-23T03:18:24.122Z,88.02
2018-03-23T03:20:51.762Z,88.08
2018-03-23T03:23:19.361Z,88.22
2018-03-23T03:25:47.821Z,88.34
2018-03-23T03:28:15.443Z,88.38
2018-03-23T03:30:43.005Z,88.25
2018-03-23T03:33:11.653Z,88.16
2018-03-23T03:35:39.305Z,88.22
2018-03-23T03:38:07.021Z,88.15
2018-03-23T03:40:34.882Z,88.45
2018-03-23T03:43:04.078Z,88.19
2018-03-23T03:45:31.682Z,88.12
2018-03-23T03:47:59.328Z,88.09
2018-03-23T03:50:27.590Z,87.76
2018-03-23T03:52:55.968Z,87.76
2018-03-23T03:55:24.230Z,87.74
2018-03-23T03:57:51.830Z,87.60
2018-03-23T04:00:20.119Z,87.32
2018-03-23T04:02:48.176Z,87.41
2018-03-23T04:05:15.791Z,87.44
2018-03-23T04:07:43.425Z,87.42
2018-03-23T04:10:11.698Z,87.01
2018-03-23T04:12:39.321Z,87.17
2018-03-23T04:15:06.949Z,86.92
2018-03-23T04:17:35.875Z,86.92
2018-03-23T04:20:07.449Z,87.24
2018-03-23T04:22:35.167Z,86.93
2018-03-23T04:25:03.916Z,86.81
2018-03-23T04:27:31.573Z,86.80
2018-03-23T04:29:59.271Z,86.63
2018-03-23T04:32:27.445Z,86.21
2018-03-23T04:34:55.743Z,86.40
2018-03-23T04:37:23.356Z,86.63
2018-03-23T04:39:51.041Z,86.49
2018-03-23T04:42:18.655Z,86.38
2018-03-23T04:44:46.264Z,86.45
2018-03-23T04:47:13.881Z,86.75
2018-03-23T04:49:41.683Z,86.79
2018-03-23T04:52:10.128Z,86.50
2018-03-23T04:54:38.683Z,86.59
2018-03-23T04:57:06.312Z,86.29
2018-03-23T04:59:36.228Z,86.25
2018-03-23T05:02:04.736Z,86.74
2018-03-23T05:04:32.434Z,86.85
2018-03-23T05:07:00.182Z,87.06
2018-03-23T05:09:28.439Z,86.93
2018-03-23T05:11:56.103Z,87.01
2018-03-23T05:14:23.655Z,87.15
2018-03-23T05:16:51.399Z,87.06
2018-03-23T05:19:19.495Z,86.73
2018-03-23T05:21:47.227Z,86.55
2018-03-23T05:24:15.664Z,86.53
2018-03-23T05:26:43.395Z,86.03
2018-03-23T05:29:12.123Z,86.05
2018-03-23T05:31:39.830Z,85.40
2018-03-23T05:34:07.482Z,84.94
2018-03-23T05:36:35.282Z,85.21
2018-03-23T05:39:03.088Z,84.95
2018-03-23T05:41:30.816Z,84.99
2018-03-23T05:43:58.929Z,84.69
2018-03-23T05:46:26.628Z,84.59
2018-03-23T05:48:54.330Z,84.33
2018-03-23T05:51:22.685Z,83.97
2018-03-23T05:53:50.264Z,83.83
2018-03-23T05:56:19.463Z,83.45
2018-03-23T05:58:47.709Z,83.44
2018-03-23T06:01:15.890Z,83.37
2018-03-23T06:03:43.492Z,82.91
2018-03-23T06:06:11.086Z,83.19
2018-03-23T06:08:39.160Z,83.57
2018-03-23T06:11:06.789Z,83.63
2018-03-23T06:13:34.715Z,84.02
2018-03-23T06:16:02.479Z,83.62
2018-03-23T06:18:30.646Z,83.56
2018-03-23T06:20:58.739Z,83.16
2018-03-23T06:23:26.337Z,83.13
2018-03-23T06:25:54.732Z,82.66
2018-03-23T06:28:22.840Z,82.33
2018-03-23T06:30:50.385Z,81.93
2018-03-23T06:33:17.992Z,81.58
2018-03-23T06:35:45.656Z,81.36
2018-03-23T06:38:13.356Z,81.23
2018-03-23T06:40:40.927Z,81.40
2018-03-23T06:43:08.533Z,81.02
2018-03-23T06:45:36.068Z,80.57
2018-03-23T06:48:03.687Z,79.95
2018-03-23T06:50:31.969Z,80.27
2018-03-23T06:53:00.160Z,79.43
2018-03-23T06:55:28.318Z,79.04
2018-03-23T06:57:56.344Z,78.48
2018-03-23T07:00:24.656Z,79.07
2018-03-23T07:02:52.207Z,78.32
2018-03-23T07:05:19.732Z,77.92
2018-03-23T07:07:47.288Z,77.83
2018-03-23T07:10:15.408Z,77.15
2018-03-23T07:12:43.056Z,77.05
2018-03-23T07:15:10.601Z,76.96
2018-03-23T07:17:38.780Z,76.79
2018-03-23T07:20:06.356Z,76.68
2018-03-23T07:22:34.699Z,75.94
2018-03-23T07:25:03.210Z,76.05
2018-03-23T07:27:30.736Z,75.88
2018-03-23T07:29:58.568Z,75.58
2018-03-23T07:32:26.120Z,76.61
2018-03-23T07:34:53.679Z,76.05
2018-03-23T07:37:21.302Z,75.90
2018-03-23T07:39:49.120Z,76.03
2018-03-23T07:42:16.648Z,76.01
2018-03-23T07:44:44.172Z,75.70
2018-03-23T07:47:11.740Z,75.92
2018-03-23T07:49:39.440Z,75.82
2018-03-23T07:52:07.743Z,75.74
2018-03-23T07:54:35.820Z,74.72
2018-03-23T07:57:03.676Z,74.75
2018-03-23T07:59:31.922Z,75.00
2018-03-23T08:02:00.047Z,75.73
2018-03-23T08:04:28.271Z,75.38
2018-03-23T08:06:55.869Z,74.10
2018-03-23T08:09:23.904Z,74.68
2018-03-23T08:11:51.439Z,74.23
2018-03-23T08:14:18.956Z,73.62
2018-03-23T08:16:46.508Z,72.22
2018-03-23T08:19:14.857Z,71.92
2018-03-23T08:21:43.928Z,71.01
2018-03-23T08:24:12.012Z,71.52
2018-03-23T08:26:39.537Z,70.93
2018-03-23T08:29:07.079Z,69.96
2018-03-23T08:31:34.840Z,70.77
2018-03-23T08:34:02.588Z,70.14
2018-03-23T08:36:30.111Z,70.49
2018-03-23T08:38:57.663Z,70.27
2018-03-23T08:41:25.189Z,70.05
2018-03-23T08:43:52.729Z,69.43
2018-03-23T08:46:20.609Z,69.16
2018-03-23T08:48:48.240Z,69.35
2018-03-23T08:51:16.622Z,69.05
2018-03-23T08:53:44.141Z,68.22
2018-03-23T08:56:12.752Z,68.65
2018-03-23T08:58:40.972Z,68.89
2018-03-23T09:01:08.969Z,68.75
2018-03-23T09:03:36.496Z,67.12
2018-03-23T09:06:04.272Z,66.48
2018-03-23T09:08:32.817Z,65.98
2018-03-23T09:11:00.451Z,65.85
2018-03-23T09:13:27.978Z,64.75
2018-03-23T09:15:55.537Z,65.18
2018-03-23T09:18:23.554Z,65.01
2018-03-23T09:20:51.687Z,64.72
2018-03-23T09:23:19.200Z,64.82
2018-03-23T09:25:47.548Z,64.02
2018-03-23T09:28:16.077Z,64.55
2018-03-23T09:30:43.816Z,63.47
2018-03-23T09:33:11.366Z,64.20
2018-03-23T09:35:38.879Z,63.79
2018-03-23T09:38:06.424Z,63.72
2018-03-23T09:40:34.180Z,63.58
2018-03-23T09:43:01.715Z,63.66
2018-03-23T09:45:29.230Z,62.28
2018-03-23T09:47:56.805Z,61.36
2018-03-23T09:50:26.040Z,62.02
2018-03-23T09:52:54.210Z,61.41
2018-03-23T09:55:22.347Z,61.54
2018-03-23T09:57:49.909Z,61.04
2018-03-23T10:00:18.300Z,59.32
2018-03-23T10:02:46.566Z,60.32
2018-03-23T10:05:14.124Z,60.57
2018-03-23T10:07:41.661Z,60.75
2018-03-23T10:10:09.981Z,60.81
2018-03-23T10:12:37.504Z,61.21
2018-03-23T10:15:05.048Z,60.53
2018-03-23T10:17:33.404Z,61.10
2018-03-23T10:20:01.501Z,61.15
2018-03-23T10:22:29.110Z,61.11
2018-03-23T10:24:57.288Z,60.02
2018-03-23T10:27:24.842Z,59.75
2018-03-23T10:29:52.646Z,60.14
2018-03-23T10:32:20.204Z,60.90
2018-03-23T10:34:47.752Z,60.06
2018-03-23T10:37:15.387Z,60.12
2018-03-23T10:39:43.082Z,60.55
2018-03-23T10:42:10.642Z,60.30
2018-03-23T10:44:38.202Z,60.52
2018-03-23T10:47:05.812Z,59.62
2018-03-23T10:49:33.987Z,59.32
2018-03-23T10:52:02.550Z,59.67
2018-03-23T10:54:30.738Z,59.55
2018-03-23T10:56:58.300Z,59.78
2018-03-23T10:59:26.344Z,59.73
2018-03-23T11:02:00.037Z,59.55
2018-03-23T11:04:27.634Z,59.75
2018-03-23T11:06:55.245Z,59.81
2018-03-23T11:09:23.572Z,60.06
2018-03-23T11:11:51.180Z,60.56
2018-03-23T11:14:19.477Z,60.75
2018-03-23T11:16:47.019Z,60.67
2018-03-23T11:19:15.600Z,60.07
2018-03-23T11:21:43.129Z,60.26
2018-03-23T11:24:11.499Z,59.81
2018-03-23T11:26:39.097Z,58.88
2018-03-23T11:29:06.627Z,59.24
2018-03-23T11:31:34.358Z,59.12
2018-03-23T11:34:01.905Z,58.76
2018-03-23T11:36:30.324Z,59.05
2018-03-23T11:38:57.857Z,58.67
2018-03-23T11:41:25.388Z,58.94
2018-03-23T11:43:52.941Z,58.14
2018-03-23T11:46:20.507Z,58.04
2018-03-23T11:48:48.157Z,58.60
2018-03-23T11:51:16.248Z,58.53
2018-03-23T11:53:43.941Z,58.71
2018-03-23T11:56:12.280Z,58.83
2018-03-23T11:58:40.402Z,57.98
2018-03-23T12:01:08.600Z,57.83
2018-03-23T12:03:36.125Z,57.08
2018-03-23T12:06:03.861Z,58.01
2018-03-23T12:08:32.004Z,58.23
2018-03-23T12:10:59.529Z,58.13
2018-03-23T12:13:27.593Z,58.28
2018-03-23T12:15:55.172Z,58.45
2018-03-23T12:18:23.195Z,58.49
2018-03-23T12:20:50.763Z,58.60
2018-03-23T12:23:18.392Z,59.16
2018-03-23T12:25:46.592Z,59.38
2018-03-23T12:28:14.300Z,59.28
2018-03-23T12:30:41.832Z,59.26
2018-03-23T12:33:09.401Z,59.20
2018-03-23T12:35:36.960Z,58.97
2018-03-23T12:38:04.845Z,58.68
2018-03-23T12:40:32.735Z,58.92
2018-03-23T12:43:00.269Z,58.78
2018-03-23T12:45:27.836Z,59.10
2018-03-23T12:47:55.418Z,59.05
2018-03-23T12:50:24.125Z,58.87
2018-03-23T12:52:52.247Z,58.30
2018-03-23T12:55:20.411Z,58.49
2018-03-23T12:57:48.040Z,57.96
2018-03-23T13:00:16.138Z,58.53
2018-03-23T13:02:44.440Z,58.62
2018-03-23T13:05:11.976Z,58.46
2018-03-23T13:07:39.540Z,57.90
2018-03-23T13:10:08.142Z,57.81
2018-03-23T13:12:35.949Z,57.87
2018-03-23T13:15:04.156Z,57.65
2018-03-23T13:17:31.699Z,58.32
2018-03-23T13:19:59.733Z,58.42
2018-03-23T13:22:27.279Z,58.12
2018-03-23T13:24:55.447Z,58.33
2018-03-23T13:27:22.999Z,58.04
2018-03-23T13:29:50.538Z,57.93
2018-03-23T13:32:18.148Z,57.57
2018-03-23T13:34:45.709Z,57.66
2018-03-23T13:37:13.239Z,56.59
2018-03-23T13:39:40.980Z,56.37
2018-03-23T13:42:08.512Z,55.55
2018-03-23T13:44:36.360Z,55.65
2018-03-23T13:47:03.912Z,55.26
2018-03-23T13:49:31.482Z,55.01
2018-03-23T13:52:00.400Z,54.57
2018-03-23T13:54:28.362Z,53.88
2018-03-23T13:56:56.075Z,54.46
2018-03-23T13:59:29.804Z,53.67
2018-03-23T14:01:57.935Z,52.73
2018-03-23T14:04:25.453Z,52.77
2018-03-23T14:06:52.995Z,52.40
2018-03-23T14:09:21.441Z,52.59
2018-03-23T14:11:49.199Z,52.96
2018-03-23T14:14:16.838Z,52.46
2018-03-23T14:16:45.023Z,52.35
2018-03-23T14:19:13.212Z,52.07
2018-03-23T14:21:40.745Z,51.50
2018-03-23T14:24:08.911Z,51.53
2018-03-23T14:26:36.661Z,50.00
2018-03-23T14:29:04.197Z,49.43
2018-03-23T14:31:31.765Z,48.20
2018-03-23T14:33:59.315Z,47.78
2018-03-23T14:36:26.849Z,48.82
2018-03-23T14:38:54.408Z,49.09
2018-03-23T14:41:21.975Z,48.80
2018-03-23T14:43:49.609Z,48.53
2018-03-23T14:46:17.170Z,50.00
2018-03-23T14:48:45.465Z,49.96
2018-03-23T14:51:13.859Z,50.08
2018-03-23T14:53:41.383Z,47.16
2018-03-23T14:56:09.337Z,48.01
2018-03-23T14:58:44.028Z,46.64
2018-03-23T15:01:12.123Z,46.59
2018-03-23T15:03:39.651Z,45.62
2018-03-23T15:06:08.007Z,45.07
2018-03-23T15:08:37.153Z,44.74
2018-03-23T15:11:05.498Z,42.92
2018-03-23T15:13:33.031Z,44.80
2018-03-23T15:16:01.169Z,46.78
2018-03-23T15:18:29.975Z,44.80
2018-03-23T15:20:57.514Z,41.13
2018-03-23T15:23:25.041Z,42.65
2018-03-23T15:25:53.181Z,41.12
2018-03-23T15:28:20.703Z,41.32
2018-03-23T15:30:48.245Z,41.41
2018-03-23T15:33:16.020Z,41.45
2018-03-23T15:35:43.555Z,42.29
2018-03-23T15:38:11.116Z,41.78
2018-03-23T15:40:38.751Z,41.61
2018-03-23T15:43:07.181Z,42.52
2018-03-23T15:45:35.288Z,42.26
2018-03-23T15:48:03.285Z,42.28
2018-03-23T15:50:31.701Z,42.90
2018-03-23T15:52:59.723Z,42.24
2018-03-23T15:55:27.741Z,43.21
2018-03-23T15:57:55.301Z,42.54
2018-03-23T16:00:24.652Z,43.40
2018-03-23T16:02:52.915Z,43.83
2018-03-23T16:05:20.432Z,43.33
2018-03-23T16:07:47.956Z,43.26
2018-03-23T16:10:16.140Z,42.75
2018-03-23T16:12:43.653Z,43.33
2018-03-23T16:15:11.775Z,43.69
2018-03-23T16:17:39.301Z,43.70
2018-03-23T16:20:07.464Z,43.51
2018-03-23T16:22:35.153Z,43.92
2018-03-23T16:25:03.346Z,42.74
2018-03-23T16:27:30.882Z,42.43
2018-03-23T16:29:58.414Z,42.86
2018-03-23T16:32:25.979Z,42.43
2018-03-23T16:34:53.496Z,43.27
2018-03-23T16:37:21.058Z,42.67
2018-03-23T16:39:49.439Z,42.76
2018-03-23T16:42:16.976Z,43.04
2018-03-23T16:44:44.504Z,43.28
2018-03-23T16:47:12.075Z,43.50
2018-03-23T16:49:40.228Z,43.73
2018-03-23T16:52:08.521Z,44.24
2018-03-23T16:54:37.112Z,44.75
2018-03-23T16:57:04.691Z,44.92
2018-03-23T16:59:32.982Z,44.81
2018-03-23T17:02:00.865Z,44.99
2018-03-23T17:04:28.395Z,45.24
2018-03-23T17:06:55.951Z,45.85
2018-03-23T17:09:24.308Z,45.89
2018-03-23T17:11:51.867Z,46.02
2018-03-23T17:14:19.412Z,46.54
2018-03-23T17:16:46.987Z,46.87
2018-03-23T17:19:15.141Z,47.11
2018-03-23T17:21:42.697Z,47.24
2018-03-23T17:24:11.321Z,47.03
2018-03-23T17:26:38.860Z,47.68
2018-03-23T17:29:06.536Z,47.90
2018-03-23T17:31:34.105Z,48.34
2018-03-23T17:34:01.645Z,48.62
2018-03-23T17:36:29.169Z,48.85
2018-03-23T17:38:56.739Z,49.52
2018-03-23T17:41:24.257Z,50.01
2018-03-23T17:43:51.780Z,49.98
2018-03-23T17:46:19.328Z,50.30
2018-03-23T17:48:47.180Z,50.87
2018-03-23T17:51:15.876Z,51.03
2018-03-23T17:53:43.461Z,51.44
2018-03-23T17:56:11.676Z,51.50
2018-03-23T17:58:39.880Z,51.88
2018-03-23T18:01:07.866Z,52.12
2018-03-23T18:03:35.715Z,52.47
2018-03-23T18:06:03.260Z,52.81
2018-03-23T18:08:31.415Z,52.96
2018-03-23T18:10:58.933Z,53.42
2018-03-23T18:13:26.465Z,53.87
2018-03-23T18:15:54.759Z,54.34
2018-03-23T18:18:23.092Z,54.50
2018-03-23T18:20:50.607Z,55.04
2018-03-23T18:23:18.127Z,54.97
2018-03-23T18:25:46.443Z,55.26
2018-03-23T18:28:13.964Z,55.54
2018-03-23T18:30:41.507Z,55.80
2018-03-23T18:33:09.101Z,56.32
2018-03-23T18:35:37.461Z,56.18
2018-03-23T18:38:04.982Z,56.72
2018-03-23T18:40:33.455Z,56.70
2018-03-23T18:43:00.989Z,57.12
2018-03-23T18:45:28.512Z,57.22
2018-03-23T18:47:56.051Z,57.25
2018-03-23T18:50:24.164Z,57.52
2018-03-23T18:52:52.168Z,57.65
2018-03-23T18:55:20.416Z,57.74
2018-03-23T18:57:47.945Z,57.94
2018-03-23T19:00:16.254Z,57.95
2018-03-23T19:02:43.828Z,58.24
2018-03-23T19:05:11.354Z,58.23
2018-03-23T19:07:38.900Z,58.31
2018-03-23T19:10:07.164Z,58.32
2018-03-23T19:12:34.902Z,58.36
2018-03-23T19:15:02.509Z,58.68
2018-03-23T19:17:30.099Z,58.39
2018-03-23T19:19:58.182Z,58.59
2018-03-23T19:22:25.711Z,58.68
2018-03-23T19:24:53.894Z,58.82
2018-03-23T19:27:21.415Z,58.87
2018-03-23T19:29:48.928Z,59.08
2018-03-23T19:32:16.498Z,59.27
2018-03-23T19:34:44.017Z,59.23
2018-03-23T19:37:11.534Z,59.54
2018-03-23T19:39:39.096Z,59.87
2018-03-23T19:42:06.819Z,60.12
2018-03-23T19:44:34.361Z,60.12
2018-03-23T19:47:02.153Z,60.31
2018-03-23T19:49:29.911Z,60.56
2018-03-23T19:51:58.264Z,60.62
2018-03-23T19:54:26.463Z,60.99
2018-03-23T19:56:53.993Z,61.09
2018-03-23T19:59:21.527Z,61.31
2018-03-23T20:01:49.721Z,61.36
2018-03-23T20:04:17.233Z,61.71
2018-03-23T20:06:44.867Z,62.09
2018-03-23T20:09:13.444Z,62.19
2018-03-23T20:11:40.993Z,62.42
2018-03-23T20:14:11.314Z,62.61
2018-03-23T20:16:38.899Z,62.73
2018-03-23T20:19:07.480Z,62.99
2018-03-23T20:21:35.061Z,62.93
2018-03-23T20:24:08.815Z,63.22
2018-03-23T20:26:36.512Z,63.64
2018-03-23T20:29:04.049Z,63.71
2018-03-23T20:31:37.186Z,63.97
2018-03-23T20:34:04.745Z,64.20
2018-03-23T20:36:32.296Z,64.25
2018-03-23T20:38:59.856Z,64.49
2018-03-23T20:41:27.383Z,64.69
2018-03-23T20:43:54.901Z,65.05
2018-03-23T20:46:22.613Z,65.21
2018-03-23T20:48:50.167Z,65.44
2018-03-23T20:51:18.453Z,65.51
2018-03-23T20:53:46.007Z,65.56
2018-03-23T20:56:14.312Z,65.82
2018-03-23T20:58:41.876Z,65.99
2018-03-23T21:01:10.217Z,66.09
2018-03-23T21:03:37.754Z,66.31
2018-03-23T21:06:05.577Z,66.32
2018-03-23T21:08:33.769Z,66.46
2018-03-23T21:11:01.288Z,66.53
2018-03-23T21:13:28.828Z,66.61
2018-03-23T21:15:56.384Z,66.79
2018-03-23T21:18:24.764Z,66.96
2018-03-23T21:20:52.305Z,66.99
2018-03-23T21:23:19.824Z,66.92
2018-03-23T21:25:48.119Z,67.11
2018-03-23T21:28:15.789Z,67.15
2018-03-23T21:30:43.319Z,67.26
2018-03-23T21:33:10.903Z,67.37
2018-03-23T21:35:38.420Z,67.25
2018-03-23T21:38:05.952Z,67.76
2018-03-23T21:40:33.552Z,67.79
2018-03-23T21:43:01.092Z,68.00
2018-03-23T21:45:28.629Z,68.16
2018-03-23T21:47:57.330Z,68.31
2018-03-23T21:50:25.792Z,68.24
2018-03-23T21:52:53.972Z,68.34
2018-03-23T21:55:22.191Z,68.23
2018-03-23T21:57:49.772Z,68.69
2018-03-23T22:00:17.772Z,68.64
2018-03-23T22:02:45.319Z,68.90
2018-03-23T22:05:13.427Z,68.58
2018-03-23T22:07:40.948Z,69.10
2018-03-23T22:10:09.466Z,69.31
2018-03-23T22:12:37.111Z,69.44
2018-03-23T22:15:05.329Z,69.61
2018-03-23T22:17:32.902Z,69.91
2018-03-23T22:20:01.232Z,69.93
2018-03-23T22:22:28.756Z,70.09
2018-03-23T22:24:56.967Z,70.22
2018-03-23T22:27:24.507Z,70.34
2018-03-23T22:29:52.031Z,70.22
2018-03-23T22:32:19.592Z,70.14
2018-03-23T22:34:47.157Z,70.43
2018-03-23T22:37:14.780Z,70.38
2018-03-23T22:39:42.365Z,70.62
2018-03-23T22:42:09.900Z,70.61
2018-03-23T22:44:37.428Z,70.96
2018-03-23T22:47:05.930Z,71.08
2018-03-23T22:49:33.463Z,71.03
2018-03-23T22:52:01.433Z,70.90
2018-03-23T22:54:29.672Z,71.43
2018-03-23T22:56:57.223Z,71.45
2018-03-23T22:59:25.396Z,71.50
2018-03-23T23:01:53.386Z,71.61
2018-03-23T23:04:21.056Z,71.77
2018-03-23T23:06:48.577Z,71.81
2018-03-23T23:09:16.767Z,71.86
2018-03-23T23:11:44.948Z,71.96
2018-03-23T23:14:12.484Z,72.00
2018-03-23T23:16:40.033Z,72.08
2018-03-23T23:19:08.373Z,72.14
2018-03-23T23:21:36.145Z,72.26
2018-03-23T23:24:04.440Z,72.35
2018-03-23T23:26:31.997Z,72.37
2018-03-23T23:28:59.848Z,72.51
2018-03-23T23:31:27.388Z,72.62
2018-03-23T23:33:54.925Z,72.68
2018-03-23T23:36:22.458Z,72.73
2018-03-23T23:38:50.037Z,72.71
2018-03-23T23:41:17.561Z,72.58
2018-03-23T23:43:45.672Z,72.84
2018-03-23T23:46:13.198Z,72.76
2018-03-23T23:48:40.734Z,72.70
2018-03-23T23:51:09.062Z,72.54
2018-03-23T23:53:36.700Z,72.58
2018-03-23T23:56:05.615Z,72.60
2018-03-23T23:58:33.154Z,72.74
